Terminal Aerodrome Forecast
Issued by NWS

Home | Current Version | Previous Version | Text Only | Print | Product List | Glossary On
Versions: 1 2 3 4 5 6 7 8 9 10 11 12
000
FTUS45 KRIW 261726
TAFLND
TAF
KLND 261726Z 2618/2718 VRB05KT P6SM SCT080
     FM261930 12010KT P6SM VCTS SCT070CB BKN090
     FM270100 28006KT P6SM VCSH OVC070
     FM270500 25006KT P6SM OVC080=

USA.gov is the U.S. government's official web portal to all federal, state and local government web resources and services.